sensor_id;sensor_type;location;lat;lon;timestamp;pressure;altitude;pressure_sealevel;temperature;humidity
77482;BME280;66582;43.004;-75.010;2024-02-16T00:00:25;99266.38;;;1.34;74.15
77482;BME280;66582;43.004;-75.010;2024-02-16T00:02:45;99249.13;;;1.85;72.03
77482;BME280;66582;43.004;-75.010;2024-02-16T00:05:09;99262.79;;;-0.19;76.65
77482;BME280;66582;43.004;-75.010;2024-02-16T00:07:34;99280.12;;;-0.74;81.61
77482;BME280;66582;43.004;-75.010;2024-02-16T00:10:02;99275.99;;;0.24;83.34
77482;BME280;66582;43.004;-75.010;2024-02-16T00:14:55;99246.07;;;1.81;76.34
77482;BME280;66582;43.004;-75.010;2024-02-16T00:17:15;99247.30;;;1.54;73.50
77482;BME280;66582;43.004;-75.010;2024-02-16T00:19:41;99243.74;;;1.47;74.41
77482;BME280;66582;43.004;-75.010;2024-02-16T00:22:07;99244.15;;;1.09;74.35
77482;BME280;66582;43.004;-75.010;2024-02-16T00:24:30;99237.71;;;0.43;78.22
77482;BME280;66582;43.004;-75.010;2024-02-16T00:26:56;99244.52;;;0.19;80.95
77482;BME280;66582;43.004;-75.010;2024-02-16T00:29:21;99225.72;;;1.30;74.85
77482;BME280;66582;43.004;-75.010;2024-02-16T00:31:46;99210.34;;;1.79;71.33
77482;BME280;66582;43.004;-75.010;2024-02-16T00:34:13;99216.22;;;1.51;72.43
77482;BME280;66582;43.004;-75.010;2024-02-16T00:36:36;99220.77;;;1.12;73.47
77482;BME280;66582;43.004;-75.010;2024-02-16T00:39:08;99200.60;;;1.55;70.62
77482;BME280;66582;43.004;-75.010;2024-02-16T00:41:38;99194.65;;;1.37;71.74
77482;BME280;66582;43.004;-75.010;2024-02-16T00:43:55;99192.43;;;1.22;72.73
77482;BME280;66582;43.004;-75.010;2024-02-16T00:46:18;99188.06;;;1.07;71.69
77482;BME280;66582;43.004;-75.010;2024-02-16T00:48:42;99183.99;;;0.52;76.13
77482;BME280;66582;43.004;-75.010;2024-02-16T00:51:08;99158.70;;;2.41;69.53
77482;BME280;66582;43.004;-75.010;2024-02-16T00:53:36;99153.16;;;2.53;66.93
77482;BME280;66582;43.004;-75.010;2024-02-16T00:56:01;99156.62;;;1.74;67.66
77482;BME280;66582;43.004;-75.010;2024-02-16T00:58:28;99157.79;;;2.16;68.26
77482;BME280;66582;43.004;-75.010;2024-02-16T01:00:51;99151.50;;;2.05;68.56
77482;BME280;66582;43.004;-75.010;2024-02-16T01:03:17;99141.36;;;2.20;67.64
77482;BME280;66582;43.004;-75.010;2024-02-16T01:08:19;99164.29;;;0.44;73.91
77482;BME280;66582;43.004;-75.010;2024-02-16T01:10:33;99144.42;;;1.24;70.82
77482;BME280;66582;43.004;-75.010;2024-02-16T01:12:55;99127.68;;;1.49;66.89
77482;BME280;66582;43.004;-75.010;2024-02-16T01:15:20;99125.49;;;0.66;73.92
77482;BME280;66582;43.004;-75.010;2024-02-16T01:17:48;99120.31;;;-0.26;76.07
77482;BME280;66582;43.004;-75.010;2024-02-16T01:20:17;99109.72;;;1.86;70.04
77482;BME280;66582;43.004;-75.010;2024-02-16T01:22:40;99108.11;;;1.03;71.05
77482;BME280;66582;43.004;-75.010;2024-02-16T01:25:07;99102.24;;;2.09;65.40
77482;BME280;66582;43.004;-75.010;2024-02-16T01:27:28;99089.22;;;2.72;63.69
77482;BME280;66582;43.004;-75.010;2024-02-16T01:30:04;99098.03;;;0.10;71.41
77482;BME280;66582;43.004;-75.010;2024-02-16T01:32:21;99075.72;;;3.02;66.26
77482;BME280;66582;43.004;-75.010;2024-02-16T01:34:48;99072.53;;;1.29;67.90
77482;BME280;66582;43.004;-75.010;2024-02-16T01:37:10;99052.73;;;1.64;68.20
77482;BME280;66582;43.004;-75.010;2024-02-16T01:39:35;99053.94;;;2.12;67.93
77482;BME280;66582;43.004;-75.010;2024-02-16T01:42:04;99045.03;;;2.01;67.60
77482;BME280;66582;43.004;-75.010;2024-02-16T01:44:26;99053.13;;;1.09;71.15
77482;BME280;66582;43.004;-75.010;2024-02-16T01:46:53;99041.53;;;2.22;66.41
77482;BME280;66582;43.004;-75.010;2024-02-16T01:49:21;99040.56;;;1.69;65.29
77482;BME280;66582;43.004;-75.010;2024-02-16T01:51:46;99047.57;;;0.57;69.20
77482;BME280;66582;43.004;-75.010;2024-02-16T01:54:05;99035.55;;;1.09;68.06
77482;BME280;66582;43.004;-75.010;2024-02-16T01:56:32;99031.46;;;0.50;68.36
77482;BME280;66582;43.004;-75.010;2024-02-16T01:59:01;99021.89;;;2.02;65.07
77482;BME280;66582;43.004;-75.010;2024-02-16T02:01:26;99024.03;;;1.73;64.35
77482;BME280;66582;43.004;-75.010;2024-02-16T02:03:50;99018.49;;;2.63;61.74
77482;BME280;66582;43.004;-75.010;2024-02-16T02:06:16;99017.98;;;2.38;61.63
77482;BME280;66582;43.004;-75.010;2024-02-16T02:08:40;99021.23;;;2.06;61.48
77482;BME280;66582;43.004;-75.010;2024-02-16T02:11:11;99022.52;;;0.87;65.76
77482;BME280;66582;43.004;-75.010;2024-02-16T02:13:29;99025.95;;;1.28;65.11
77482;BME280;66582;43.004;-75.010;2024-02-16T02:16:02;99006.52;;;1.62;64.83
77482;BME280;66582;43.004;-75.010;2024-02-16T02:18:21;99010.70;;;0.96;68.26
77482;BME280;66582;43.004;-75.010;2024-02-16T02:20:45;98998.59;;;1.83;65.99
77482;BME280;66582;43.004;-75.010;2024-02-16T02:23:12;99002.48;;;1.47;64.46
77482;BME280;66582;43.004;-75.010;2024-02-16T02:25:36;98989.31;;;2.63;62.35
77482;BME280;66582;43.004;-75.010;2024-02-16T02:28:02;98986.79;;;2.41;61.12
77482;BME280;66582;43.004;-75.010;2024-02-16T02:30:31;98988.74;;;1.61;62.12
77482;BME280;66582;43.004;-75.010;2024-02-16T02:33:04;98977.34;;;3.16;58.95
77482;BME280;66582;43.004;-75.010;2024-02-16T02:35:17;98979.05;;;3.58;57.76
77482;BME280;66582;43.004;-75.010;2024-02-16T02:37:42;98965.13;;;2.42;59.76
77482;BME280;66582;43.004;-75.010;2024-02-16T02:40:08;98961.66;;;2.85;59.61
77482;BME280;66582;43.004;-75.010;2024-02-16T02:42:36;98962.74;;;3.12;58.18
77482;BME280;66582;43.004;-75.010;2024-02-16T02:45:05;98962.16;;;3.39;57.16
77482;BME280;66582;43.004;-75.010;2024-02-16T02:47:23;98955.16;;;1.89;60.93
77482;BME280;66582;43.004;-75.010;2024-02-16T02:49:50;98951.89;;;2.08;63.38
77482;BME280;66582;43.004;-75.010;2024-02-16T02:52:14;98948.92;;;3.21;59.34
77482;BME280;66582;43.004;-75.010;2024-02-16T02:54:40;98939.62;;;3.12;57.23
77482;BME280;66582;43.004;-75.010;2024-02-16T02:57:07;98936.42;;;2.35;63.34
77482;BME280;66582;43.004;-75.010;2024-02-16T02:59:32;98935.85;;;1.00;67.23
77482;BME280;66582;43.004;-75.010;2024-02-16T03:02:00;98946.41;;;-0.28;73.93
77482;BME280;66582;43.004;-75.010;2024-02-16T03:04:23;98942.14;;;-0.69;79.33
77482;BME280;66582;43.004;-75.010;2024-02-16T03:06:48;98928.45;;;0.75;74.27
77482;BME280;66582;43.004;-75.010;2024-02-16T03:09:12;98935.40;;;-0.09;76.66
77482;BME280;66582;43.004;-75.010;2024-02-16T03:11:41;98928.04;;;0.61;76.74
77482;BME280;66582;43.004;-75.010;2024-02-16T03:14:12;98913.34;;;1.58;70.36
77482;BME280;66582;43.004;-75.010;2024-02-16T03:16:31;98917.63;;;2.14;69.28
77482;BME280;66582;43.004;-75.010;2024-02-16T03:18:55;98918.00;;;1.59;69.38
77482;BME280;66582;43.004;-75.010;2024-02-16T03:21:20;98932.88;;;-0.14;77.33
77482;BME280;66582;43.004;-75.010;2024-02-16T03:24:02;98922.57;;;0.64;76.11
77482;BME280;66582;43.004;-75.010;2024-02-16T03:26:24;98933.06;;;-0.03;83.34
77482;BME280;66582;43.004;-75.010;2024-02-16T03:28:47;98928.93;;;-0.37;88.41
77482;BME280;66582;43.004;-75.010;2024-02-16T03:31:14;98927.65;;;0.03;88.45
77482;BME280;66582;43.004;-75.010;2024-02-16T03:33:27;98936.55;;;-0.57;91.32
77482;BME280;66582;43.004;-75.010;2024-02-16T03:35:55;98932.33;;;-0.34;94.73
77482;BME280;66582;43.004;-75.010;2024-02-16T03:38:18;98930.20;;;0.68;86.87
77482;BME280;66582;43.004;-75.010;2024-02-16T03:40:48;98922.66;;;0.92;81.83
77482;BME280;66582;43.004;-75.010;2024-02-16T03:43:17;98914.14;;;3.22;73.31
77482;BME280;66582;43.004;-75.010;2024-02-16T03:45:36;98918.52;;;2.29;71.50
77482;BME280;66582;43.004;-75.010;2024-02-16T03:48:05;98923.06;;;3.01;71.97
77482;BME280;66582;43.004;-75.010;2024-02-16T03:50:29;98919.20;;;3.50;69.26
77482;BME280;66582;43.004;-75.010;2024-02-16T03:52:53;98922.02;;;2.12;71.02
77482;BME280;66582;43.004;-75.010;2024-02-16T03:55:24;98922.29;;;2.28;76.09
77482;BME280;66582;43.004;-75.010;2024-02-16T03:57:46;98914.81;;;3.64;69.58
77482;BME280;66582;43.004;-75.010;2024-02-16T04:00:10;98919.63;;;1.42;75.73
77482;BME280;66582;43.004;-75.010;2024-02-16T04:02:34;98919.36;;;2.61;76.05
77482;BME280;66582;43.004;-75.010;2024-02-16T04:05:01;98922.44;;;0.93;79.40
77482;BME280;66582;43.004;-75.010;2024-02-16T04:07:26;98915.04;;;2.64;74.57
77482;BME280;66582;43.004;-75.010;2024-02-16T04:09:50;98913.00;;;3.58;68.17
77482;BME280;66582;43.004;-75.010;2024-02-16T04:12:18;98922.57;;;2.81;69.28
77482;BME280;66582;43.004;-75.010;2024-02-16T04:14:41;98924.59;;;-0.21;79.21
77482;BME280;66582;43.004;-75.010;2024-02-16T04:17:07;98919.28;;;0.59;81.23
77482;BME280;66582;43.004;-75.010;2024-02-16T04:19:31;98930.99;;;-0.11;85.79
77482;BME280;66582;43.004;-75.010;2024-02-16T04:21:58;98934.11;;;0.19;82.74
77482;BME280;66582;43.004;-75.010;2024-02-16T04:24:22;98920.37;;;1.25;79.47
77482;BME280;66582;43.004;-75.010;2024-02-16T04:26:50;98941.56;;;0.16;81.07
77482;BME280;66582;43.004;-75.010;2024-02-16T04:29:14;98929.62;;;0.35;83.00
77482;BME280;66582;43.004;-75.010;2024-02-16T04:31:39;98943.84;;;0.17;78.06
77482;BME280;66582;43.004;-75.010;2024-02-16T04:36:30;98944.89;;;0.58;76.11
77482;BME280;66582;43.004;-75.010;2024-02-16T04:39:03;98949.26;;;0.30;74.00
77482;BME280;66582;43.004;-75.010;2024-02-16T04:41:20;98940.70;;;0.89;71.11
77482;BME280;66582;43.004;-75.010;2024-02-16T04:43:45;98938.73;;;1.03;69.23
77482;BME280;66582;43.004;-75.010;2024-02-16T04:46:14;98960.39;;;0.95;68.74
77482;BME280;66582;43.004;-75.010;2024-02-16T04:48:36;98943.55;;;0.12;71.77
77482;BME280;66582;43.004;-75.010;2024-02-16T04:51:09;98930.83;;;0.05;69.64
77482;BME280;66582;43.004;-75.010;2024-02-16T04:53:28;98937.63;;;0.28;70.23
77482;BME280;66582;43.004;-75.010;2024-02-16T04:55:52;98947.65;;;0.21;70.09
77482;BME280;66582;43.004;-75.010;2024-02-16T04:58:19;98939.64;;;0.20;69.40
77482;BME280;66582;43.004;-75.010;2024-02-16T05:00:42;98928.44;;;0.63;65.78
77482;BME280;66582;43.004;-75.010;2024-02-16T05:03:08;98922.61;;;0.46;64.58
77482;BME280;66582;43.004;-75.010;2024-02-16T05:05:36;98918.61;;;0.57;64.44
77482;BME280;66582;43.004;-75.010;2024-02-16T05:08:00;98908.99;;;0.95;60.75
77482;BME280;66582;43.004;-75.010;2024-02-16T05:10:23;98903.04;;;2.21;58.84
77482;BME280;66582;43.004;-75.010;2024-02-16T05:12:48;98913.21;;;2.04;58.38
77482;BME280;66582;43.004;-75.010;2024-02-16T05:15:15;98915.04;;;1.91;58.55
77482;BME280;66582;43.004;-75.010;2024-02-16T05:17:52;98914.17;;;1.33;59.41
77482;BME280;66582;43.004;-75.010;2024-02-16T05:20:13;98920.05;;;1.08;60.55
77482;BME280;66582;43.004;-75.010;2024-02-16T05:22:29;98938.31;;;-0.09;67.64
77482;BME280;66582;43.004;-75.010;2024-02-16T05:24:54;98952.56;;;0.09;70.87
77482;BME280;66582;43.004;-75.010;2024-02-16T05:27:50;98943.48;;;1.35;68.52
77482;BME280;66582;43.004;-75.010;2024-02-16T05:29:49;98943.46;;;1.03;70.93
77482;BME280;66582;43.004;-75.010;2024-02-16T05:32:14;98946.95;;;1.32;76.14
77482;BME280;66582;43.004;-75.010;2024-02-16T05:34:35;98957.01;;;-1.34;96.85
77482;BME280;66582;43.004;-75.010;2024-02-16T05:37:00;98969.21;;;-0.86;96.99
77482;BME280;66582;43.004;-75.010;2024-02-16T05:39:27;98947.56;;;-1.43;100.00
77482;BME280;66582;43.004;-75.010;2024-02-16T05:41:51;98939.43;;;-0.27;94.53
77482;BME280;66582;43.004;-75.010;2024-02-16T05:46:51;98942.86;;;-1.45;92.92
77482;BME280;66582;43.004;-75.010;2024-02-16T05:49:06;98939.33;;;-0.86;90.86
77482;BME280;66582;43.004;-75.010;2024-02-16T05:51:36;98959.80;;;-0.44;89.26
77482;BME280;66582;43.004;-75.010;2024-02-16T05:54:00;98927.79;;;0.27;83.25
77482;BME280;66582;43.004;-75.010;2024-02-16T05:56:24;98928.37;;;-0.47;83.38
77482;BME280;66582;43.004;-75.010;2024-02-16T05:58:50;98950.52;;;-0.29;82.35
77482;BME280;66582;43.004;-75.010;2024-02-16T06:01:21;98939.61;;;-0.38;79.07
77482;BME280;66582;43.004;-75.010;2024-02-16T06:03:41;98936.09;;;-1.00;81.62
77482;BME280;66582;43.004;-75.010;2024-02-16T06:06:06;98912.76;;;-0.13;81.79
77482;BME280;66582;43.004;-75.010;2024-02-16T06:09:00;98941.73;;;-0.77;82.87
77482;BME280;66582;43.004;-75.010;2024-02-16T06:10:57;98956.23;;;-0.55;78.12
77482;BME280;66582;43.004;-75.010;2024-02-16T06:13:28;98954.76;;;-0.49;76.20
